Time;durP1;ratioP1;P1;durP2;ratioP2;P2;SDS_P1;SDS_P2;PMS_P1;PMS_P2;Temp;Humidity;BMP_temperature;BMP_pressure;BME280_temperature;BME280_humidity;BME280_pressure;Samples;Min_cycle;Max_cycle;Signal;HPM_P1;HPM_P2
2021/12/19 00:01:01;;;;;;;25.40;9.60;;;;;;;;;;5054767;28;20029;-77
2021/12/19 00:11:14;;;;;;;25.48;10.43;;;;;;;;;;5054600;28;20047;-78
2021/12/19 00:13:40;;;;;;;19.40;8.35;;;;;;;;;;5054588;28;20471;-77
2021/12/19 00:16:06;;;;;;;21.60;8.40;;;;;;;;;;5054172;28;20029;-77
2021/12/19 00:18:31;;;;;;;20.63;8.38;;;;;;;;;;5054463;28;20102;-77
2021/12/19 00:20:57;;;;;;;21.08;8.68;;;;;;;;;;5054433;28;20025;-78
2021/12/19 00:23:22;;;;;;;24.90;10.20;;;;;;;;;;5054392;28;20033;-78
2021/12/19 00:25:48;;;;;;;27.48;10.82;;;;;;;;;;5054354;28;20111;-77
2021/12/19 00:28:13;;;;;;;30.85;12.30;;;;;;;;;;5056337;28;20450;-78
2021/12/19 00:30:39;;;;;;;40.25;14.30;;;;;;;;;;5053193;28;20029;-78
2021/12/19 00:33:04;;;;;;;30.13;12.25;;;;;;;;;;5053051;28;20436;-78
2021/12/19 00:35:30;;;;;;;32.30;11.65;;;;;;;;;;5053675;28;20107;-78
2021/12/19 00:37:55;;;;;;;32.97;12.25;;;;;;;;;;5036401;28;20033;-77
2021/12/19 00:40:21;;;;;;;30.80;12.07;;;;;;;;;;5054282;28;20069;-78
2021/12/19 00:43:03;;;;;;;30.67;12.55;;;;;;;;;;5054071;28;20094;-77
2021/12/19 00:45:32;;;;;;;33.10;12.57;;;;;;;;;;5052844;28;20025;-78
2021/12/19 00:47:58;;;;;;;29.83;11.95;;;;;;;;;;5040635;28;20032;-77
2021/12/19 00:50:24;;;;;;;31.30;11.18;;;;;;;;;;5055189;28;20029;-77
2021/12/19 00:52:49;;;;;;;29.35;12.40;;;;;;;;;;5053926;28;20028;-79
2021/12/19 00:55:15;;;;;;;29.33;11.07;;;;;;;;;;5054301;28;20457;-78
2021/12/19 00:57:41;;;;;;;33.88;11.63;;;;;;;;;;5053846;28;20040;-78
2021/12/19 01:00:08;;;;;;;29.92;11.18;;;;;;;;;;5053740;28;20021;-78
2021/12/19 01:02:33;;;;;;;32.95;12.45;;;;;;;;;;5053079;28;20025;-78
2021/12/19 01:04:59;;;;;;;26.73;11.50;;;;;;;;;;5053873;28;20035;-79
2021/12/19 01:07:24;;;;;;;34.58;13.25;;;;;;;;;;5058534;28;20009;-77
2021/12/19 01:09:50;;;;;;;27.33;11.57;;;;;;;;;;5056083;28;20520;-77
2021/12/19 01:12:15;;;;;;;26.98;12.05;;;;;;;;;;5053810;28;20021;-78
2021/12/19 01:14:41;;;;;;;28.75;11.90;;;;;;;;;;5052350;28;20116;-78
2021/12/19 01:17:07;;;;;;;28.10;11.20;;;;;;;;;;5053707;28;20521;-78
2021/12/19 01:19:33;;;;;;;28.15;11.38;;;;;;;;;;5052592;28;20032;-78
2021/12/19 01:21:59;;;;;;;28.02;11.93;;;;;;;;;;5053753;28;20013;-78
2021/12/19 01:24:24;;;;;;;26.83;11.25;;;;;;;;;;5053667;28;20025;-78
2021/12/19 01:26:50;;;;;;;26.60;10.77;;;;;;;;;;5055590;28;20027;-76
2021/12/19 01:29:15;;;;;;;27.00;11.23;;;;;;;;;;5054683;28;20421;-78
2021/12/19 01:31:41;;;;;;;23.50;10.82;;;;;;;;;;5053658;28;20435;-78
2021/12/19 01:34:12;;;;;;;20.30;9.85;;;;;;;;;;5053611;28;20032;-77
2021/12/19 01:36:41;;;;;;;24.88;9.23;;;;;;;;;;5053526;28;20466;-78
2021/12/19 01:39:07;;;;;;;21.92;10.25;;;;;;;;;;5052531;28;20037;-78
2021/12/19 01:41:32;;;;;;;21.42;9.43;;;;;;;;;;5052377;28;20120;-78
2021/12/19 01:43:58;;;;;;;18.60;9.02;;;;;;;;;;5053878;28;20495;-77
2021/12/19 01:46:23;;;;;;;16.92;9.00;;;;;;;;;;5054059;28;20021;-76
2021/12/19 01:48:49;;;;;;;19.30;8.80;;;;;;;;;;5063148;28;20444;-78
2021/12/19 01:51:14;;;;;;;15.35;8.25;;;;;;;;;;5057275;28;20120;-77
2021/12/19 01:53:40;;;;;;;19.23;9.52;;;;;;;;;;5056021;28;20057;-78
2021/12/19 01:56:07;;;;;;;23.08;9.32;;;;;;;;;;5057116;28;20029;-77
2021/12/19 01:58:33;;;;;;;21.65;9.60;;;;;;;;;;5057137;28;20099;-78
2021/12/19 02:00:59;;;;;;;19.33;9.10;;;;;;;;;;5057308;28;20436;-77
2021/12/19 02:03:25;;;;;;;20.55;9.40;;;;;;;;;;5057315;28;20021;-77
2021/12/19 02:05:50;;;;;;;17.00;8.50;;;;;;;;;;5058221;28;20059;-78
2021/12/19 02:08:17;;;;;;;18.38;8.57;;;;;;;;;;5060796;28;20053;-78
2021/12/19 02:10:42;;;;;;;23.83;8.82;;;;;;;;;;5055720;28;20036;-78
2021/12/19 02:13:10;;;;;;;22.98;9.55;;;;;;;;;;5055739;28;20021;-78
2021/12/19 02:15:35;;;;;;;25.50;9.23;;;;;;;;;;5057800;28;20395;-78
2021/12/19 02:18:04;;;;;;;17.73;8.77;;;;;;;;;;5059560;28;20021;-78
2021/12/19 02:20:38;;;;;;;20.73;8.52;;;;;;;;;;5060724;28;20029;-78
2021/12/19 02:23:03;;;;;;;20.67;8.95;;;;;;;;;;5061640;28;20021;-78
2021/12/19 02:25:29;;;;;;;17.30;9.07;;;;;;;;;;5059598;28;20040;-77
2021/12/19 02:27:54;;;;;;;18.05;8.55;;;;;;;;;;5060574;28;20033;-77
2021/12/19 02:30:20;;;;;;;19.45;8.98;;;;;;;;;;5055370;28;20455;-78
2021/12/19 02:32:45;;;;;;;21.88;9.27;;;;;;;;;;5056495;28;20029;-78
2021/12/19 02:35:15;;;;;;;23.90;9.50;;;;;;;;;;5056521;28;20029;-78
2021/12/19 02:50:37;;;;;;;19.10;10.05;;;;;;;;;;5056833;28;20444;-78
2021/12/19 02:53:02;;;;;;;23.23;10.45;;;;;;;;;;5056145;28;20060;-78
2021/12/19 02:55:28;;;;;;;20.73;9.82;;;;;;;;;;5055759;28;20056;-78
2021/12/19 02:57:53;;;;;;;24.55;10.93;;;;;;;;;;5055762;28;20033;-77
2021/12/19 03:00:23;;;;;;;19.88;9.25;;;;;;;;;;5056005;28;20028;-78
2021/12/19 03:02:49;;;;;;;23.25;11.70;;;;;;;;;;5054971;28;20120;-78
2021/12/19 03:05:14;;;;;;;24.98;10.57;;;;;;;;;;5055172;28;20532;-78
2021/12/19 03:07:42;;;;;;;23.52;10.70;;;;;;;;;;5059613;28;20376;-78
2021/12/19 03:18:17;;;;;;;25.58;11.38;;;;;;;;;;5055600;28;20091;-78
2021/12/19 03:20:43;;;;;;;28.25;12.02;;;;;;;;;;5055588;28;20033;-78
2021/12/19 03:23:10;;;;;;;23.15;11.13;;;;;;;;;;5055886;28;20483;-78
2021/12/19 03:25:36;;;;;;;24.55;12.07;;;;;;;;;;5060444;28;20025;-77
2021/12/19 03:28:03;;;;;;;29.67;12.30;;;;;;;;;;5055787;28;20025;-77
2021/12/19 03:30:29;;;;;;;27.27;11.00;;;;;;;;;;5055375;28;20029;-77
2021/12/19 03:32:54;;;;;;;27.08;12.65;;;;;;;;;;5055881;28;20052;-77
2021/12/19 03:35:20;;;;;;;24.45;11.95;;;;;;;;;;5055283;28;20029;-78
2021/12/19 03:37:47;;;;;;;28.88;10.88;;;;;;;;;;5055212;28;20174;-77
2021/12/19 03:40:13;;;;;;;26.30;11.50;;;;;;;;;;5054822;28;20383;-77
2021/12/19 03:42:47;;;;;;;25.55;11.18;;;;;;;;;;5055253;28;20029;-78
2021/12/19 03:45:17;;;;;;;28.08;11.88;;;;;;;;;;5056558;28;20056;-77
2021/12/19 03:47:43;;;;;;;26.55;11.65;;;;;;;;;;5054292;28;20037;-76
2021/12/19 03:50:09;;;;;;;28.20;12.23;;;;;;;;;;5055279;28;20104;-76
2021/12/19 03:52:36;;;;;;;29.45;12.23;;;;;;;;;;5037237;28;20035;-76
2021/12/19 03:55:02;;;;;;;26.98;12.70;;;;;;;;;;5053808;28;20383;-76
2021/12/19 03:57:28;;;;;;;24.48;12.32;;;;;;;;;;5054777;28;20037;-76
2021/12/19 03:59:53;;;;;;;29.00;13.07;;;;;;;;;;5054855;28;20372;-76
2021/12/19 04:02:25;;;;;;;29.92;13.15;;;;;;;;;;5053865;28;20035;-76
2021/12/19 04:04:51;;;;;;;29.67;13.07;;;;;;;;;;5043303;28;20037;-76
2021/12/19 04:07:16;;;;;;;28.17;12.98;;;;;;;;;;5054267;28;20402;-76
2021/12/19 04:09:42;;;;;;;36.08;15.10;;;;;;;;;;5052393;28;20028;-76
2021/12/19 04:12:08;;;;;;;41.65;15.43;;;;;;;;;;5053487;28;20027;-76
2021/12/19 04:14:34;;;;;;;34.03;13.90;;;;;;;;;;5054817;28;20036;-76
2021/12/19 04:17:00;;;;;;;32.50;15.18;;;;;;;;;;5054357;28;20037;-76
2021/12/19 04:19:26;;;;;;;42.95;15.50;;;;;;;;;;5053318;28;20515;-76
2021/12/19 04:21:51;;;;;;;31.70;13.90;;;;;;;;;;5053215;28;20032;-76
2021/12/19 04:24:17;;;;;;;37.75;15.90;;;;;;;;;;5057698;28;20032;-77
2021/12/19 04:26:42;;;;;;;37.92;16.48;;;;;;;;;;5053741;28;20106;-77
2021/12/19 04:29:08;;;;;;;54.72;18.40;;;;;;;;;;5054826;28;20025;-77
2021/12/19 04:31:33;;;;;;;47.42;18.63;;;;;;;;;;5053131;28;20128;-77
2021/12/19 04:33:59;;;;;;;46.78;18.33;;;;;;;;;;5036813;28;20099;-77
2021/12/19 04:36:31;;;;;;;46.33;18.85;;;;;;;;;;5054135;28;20106;-76
2021/12/19 04:50:53;;;;;;;97.22;29.63;;;;;;;;;;5041188;28;20033;-78
2021/12/19 05:06:11;;;;;;;146.20;35.00;;;;;;;;;;5057569;28;20061;-77
2021/12/19 05:14:18;;;;;;;168.18;39.13;;;;;;;;;;5052864;28;20032;-77
2021/12/19 05:16:46;;;;;;;156.95;40.42;;;;;;;;;;5053665;28;20037;-77
2021/12/19 05:19:26;;;;;;;128.80;32.13;;;;;;;;;;5053708;28;20032;-77
2021/12/19 05:21:55;;;;;;;182.75;42.78;;;;;;;;;;5055555;28;20020;-76
2021/12/19 05:25:01;;;;;;;211.30;48.53;;;;;;;;;;5061729;28;20029;-78
2021/12/19 05:27:12;;;;;;;137.52;38.35;;;;;;;;;;5057382;28;20036;-78
2021/12/19 05:29:38;;;;;;;114.72;33.58;;;;;;;;;;5056510;28;20378;-77
2021/12/19 05:32:04;;;;;;;151.95;45.08;;;;;;;;;;5039963;28;20465;-78
2021/12/19 05:34:30;;;;;;;100.93;33.72;;;;;;;;;;5057890;28;20128;-77
2021/12/19 05:45:12;;;;;;;46.30;19.67;;;;;;;;;;5058683;28;20466;-77
2021/12/19 05:47:38;;;;;;;42.70;17.75;;;;;;;;;;5057325;28;20029;-77
2021/12/19 05:50:04;;;;;;;41.67;17.75;;;;;;;;;;5057040;28;20036;-77
2021/12/19 05:52:30;;;;;;;44.75;17.77;;;;;;;;;;5056088;28;20025;-77
2021/12/19 05:54:55;;;;;;;35.80;16.77;;;;;;;;;;5057161;28;20104;-78
2021/12/19 05:57:21;;;;;;;31.23;14.95;;;;;;;;;;5072577;28;20048;-77
2021/12/19 05:59:46;;;;;;;34.97;15.52;;;;;;;;;;5057397;28;20112;-77
2021/12/19 06:02:12;;;;;;;35.92;16.00;;;;;;;;;;5059029;28;20523;-77
2021/12/19 06:04:37;;;;;;;47.47;17.67;;;;;;;;;;5060873;28;20537;-77
2021/12/19 06:07:03;;;;;;;47.28;17.83;;;;;;;;;;5056953;28;20029;-77
2021/12/19 06:09:28;;;;;;;41.97;18.17;;;;;;;;;;5057249;28;20087;-78
2021/12/19 06:11:54;;;;;;;40.38;16.92;;;;;;;;;;5056980;28;20123;-78
2021/12/19 06:14:19;;;;;;;35.03;16.25;;;;;;;;;;5056836;28;20024;-78
2021/12/19 06:16:45;;;;;;;34.72;14.43;;;;;;;;;;5056803;28;20457;-78
2021/12/19 06:19:10;;;;;;;32.78;14.10;;;;;;;;;;5056555;28;20025;-78
2021/12/19 06:21:36;;;;;;;33.83;13.85;;;;;;;;;;5073018;28;20043;-77
2021/12/19 06:24:01;;;;;;;35.45;15.10;;;;;;;;;;5059925;28;20112;-77
2021/12/19 06:26:27;;;;;;;36.03;15.50;;;;;;;;;;5055503;28;20036;-77
2021/12/19 06:28:52;;;;;;;31.75;14.65;;;;;;;;;;5056622;28;20061;-78
2021/12/19 06:31:18;;;;;;;34.30;15.55;;;;;;;;;;5056631;28;20519;-77
2021/12/19 06:33:43;;;;;;;35.47;13.50;;;;;;;;;;5055301;28;20036;-77
2021/12/19 06:36:09;;;;;;;33.50;14.43;;;;;;;;;;5056395;28;20119;-77
2021/12/19 06:38:35;;;;;;;35.25;15.15;;;;;;;;;;5056309;28;20064;-78
2021/12/19 06:41:01;;;;;;;44.67;16.40;;;;;;;;;;5057094;28;20024;-79
2021/12/19 06:43:28;;;;;;;45.55;16.60;;;;;;;;;;5061502;28;20040;-78
2021/12/19 06:45:56;;;;;;;41.65;18.38;;;;;;;;;;5056263;28;20467;-78
2021/12/19 06:48:24;;;;;;;36.67;15.07;;;;;;;;;;5055938;28;20032;-79
2021/12/19 06:50:50;;;;;;;38.92;14.75;;;;;;;;;;5055059;28;20033;-78
2021/12/19 06:53:15;;;;;;;38.58;14.30;;;;;;;;;;5056127;28;20428;-79
2021/12/19 06:55:41;;;;;;;39.85;15.32;;;;;;;;;;5055056;28;20041;-78
2021/12/19 06:58:06;;;;;;;37.13;14.68;;;;;;;;;;5055998;28;20078;-79
2021/12/19 07:00:32;;;;;;;28.95;12.98;;;;;;;;;;5056032;28;20139;-78
2021/12/19 07:02:57;;;;;;;28.30;12.88;;;;;;;;;;5062929;28;20025;-77
2021/12/19 07:05:23;;;;;;;29.77;13.20;;;;;;;;;;5055938;28;20490;-76
2021/12/19 07:07:48;;;;;;;28.10;13.00;;;;;;;;;;5056419;28;20132;-79
2021/12/19 07:10:14;;;;;;;39.50;14.10;;;;;;;;;;5055833;28;20063;-79
2021/12/19 07:12:40;;;;;;;28.58;13.68;;;;;;;;;;5038133;28;20036;-76
2021/12/19 07:15:06;;;;;;;28.13;12.65;;;;;;;;;;5055688;28;20025;-77
2021/12/19 07:17:31;;;;;;;29.90;13.32;;;;;;;;;;5055346;28;20032;-76
2021/12/19 07:19:57;;;;;;;29.48;13.23;;;;;;;;;;5055680;28;20078;-77
2021/12/19 07:22:22;;;;;;;30.15;13.00;;;;;;;;;;5063850;28;20116;-77
2021/12/19 07:24:48;;;;;;;26.67;12.48;;;;;;;;;;5055475;28;20036;-77
2021/12/19 07:27:14;;;;;;;31.20;14.85;;;;;;;;;;5055526;28;20039;-77
2021/12/19 07:29:39;;;;;;;37.17;13.57;;;;;;;;;;5021211;28;20118;-79
2021/12/19 07:32:05;;;;;;;38.10;14.20;;;;;;;;;;5054229;28;20025;-78
2021/12/19 07:34:33;;;;;;;33.63;13.38;;;;;;;;;;5054168;28;20017;-76
2021/12/19 07:36:59;;;;;;;32.42;12.63;;;;;;;;;;5055179;28;20411;-79
2021/12/19 07:42:07;;;;;;;31.20;14.20;;;;;;;;;;5059971;28;20035;-78
2021/12/19 07:44:33;;;;;;;32.25;13.05;;;;;;;;;;5053852;28;20443;-78
2021/12/19 07:46:59;;;;;;;32.20;13.00;;;;;;;;;;5055050;28;20033;-76
2021/12/19 07:49:24;;;;;;;28.45;13.07;;;;;;;;;;5055043;28;20025;-75
2021/12/19 07:51:50;;;;;;;83.65;31.00;;;;;;;;;;5053865;28;20029;-76
2021/12/19 07:54:15;;;;;;;39.85;16.17;;;;;;;;;;5054991;28;20029;-77
2021/12/19 07:56:40;;;;;;;33.58;13.90;;;;;;;;;;5055092;28;20359;-78
2021/12/19 07:59:06;;;;;;;48.40;18.42;;;;;;;;;;5054947;28;20051;-77
2021/12/19 08:01:32;;;;;;;45.22;17.83;;;;;;;;;;5058805;28;20036;-77
2021/12/19 08:03:58;;;;;;;31.25;14.43;;;;;;;;;;5037240;28;20442;-77
2021/12/19 08:06:23;;;;;;;32.47;15.10;;;;;;;;;;5055003;28;20123;-77
2021/12/19 08:08:53;;;;;;;41.08;15.10;;;;;;;;;;5054773;28;20036;-77
2021/12/19 08:14:03;;;;;;;41.25;15.07;;;;;;;;;;5053618;28;20055;-78
2021/12/19 08:16:28;;;;;;;37.08;15.45;;;;;;;;;;5054580;28;20455;-77
2021/12/19 08:18:54;;;;;;;38.67;16.40;;;;;;;;;;5060998;28;20422;-77
2021/12/19 08:21:20;;;;;;;37.58;15.32;;;;;;;;;;5054450;28;20033;-78
2021/12/19 08:23:45;;;;;;;30.00;13.23;;;;;;;;;;5054418;28;20120;-78
2021/12/19 08:26:11;;;;;;;28.83;12.73;;;;;;;;;;5054435;28;20033;-78
2021/12/19 08:28:36;;;;;;;30.42;13.68;;;;;;;;;;5054082;28;20029;-78
2021/12/19 08:31:02;;;;;;;29.95;13.45;;;;;;;;;;5054352;28;20074;-77
2021/12/19 08:33:27;;;;;;;34.78;15.35;;;;;;;;;;5053093;28;20063;-77
2021/12/19 08:35:53;;;;;;;31.45;14.05;;;;;;;;;;5054523;28;20407;-77
2021/12/19 08:38:18;;;;;;;34.47;15.52;;;;;;;;;;5058422;28;20036;-76
2021/12/19 08:40:46;;;;;;;32.67;13.55;;;;;;;;;;5053006;28;20434;-77
2021/12/19 08:43:11;;;;;;;32.20;13.93;;;;;;;;;;5053855;28;20435;-77
2021/12/19 08:45:37;;;;;;;28.52;12.02;;;;;;;;;;5054193;28;20025;-77
2021/12/19 08:48:04;;;;;;;33.72;14.55;;;;;;;;;;5054068;28;20029;-77
2021/12/19 08:50:29;;;;;;;27.42;12.05;;;;;;;;;;5053966;28;20066;-77
2021/12/19 08:52:55;;;;;;;29.92;13.00;;;;;;;;;;5053955;28;20028;-77
2021/12/19 08:55:22;;;;;;;31.35;14.27;;;;;;;;;;5053756;28;20032;-76
2021/12/19 08:57:48;;;;;;;25.83;12.18;;;;;;;;;;5056432;28;20028;-77
2021/12/19 09:00:14;;;;;;;27.10;13.20;;;;;;;;;;5054039;28;20048;-77
2021/12/19 09:02:41;;;;;;;30.05;14.27;;;;;;;;;;5053984;28;20021;-77
2021/12/19 09:05:07;;;;;;;27.90;13.88;;;;;;;;;;5053881;28;20021;-76
2021/12/19 09:07:33;;;;;;;27.30;13.77;;;;;;;;;;5053873;28;20032;-78
2021/12/19 09:09:59;;;;;;;29.05;14.20;;;;;;;;;;5053849;28;20067;-76
2021/12/19 09:12:25;;;;;;;29.88;14.35;;;;;;;;;;5053838;28;20059;-77
2021/12/19 09:14:51;;;;;;;34.65;15.05;;;;;;;;;;5053839;28;20438;-77
2021/12/19 09:17:16;;;;;;;29.23;13.23;;;;;;;;;;5057937;28;20041;-76
2021/12/19 09:19:42;;;;;;;24.27;12.82;;;;;;;;;;5054303;28;20053;-77
2021/12/19 09:22:07;;;;;;;31.92;14.75;;;;;;;;;;5052356;28;20059;-77
2021/12/19 09:24:33;;;;;;;32.58;15.38;;;;;;;;;;5053748;28;20021;-77
2021/12/19 09:26:59;;;;;;;26.52;13.10;;;;;;;;;;5052263;28;20067;-77
2021/12/19 09:29:28;;;;;;;26.48;13.65;;;;;;;;;;5052407;28;20474;-77
2021/12/19 09:31:54;;;;;;;29.20;13.15;;;;;;;;;;5052493;28;20063;-78
2021/12/19 09:34:19;;;;;;;29.42;14.00;;;;;;;;;;5053811;28;20368;-76
2021/12/19 09:36:44;;;;;;;29.65;13.02;;;;;;;;;;5054218;28;20122;-79
2021/12/19 09:39:10;;;;;;;31.70;13.40;;;;;;;;;;5055526;28;20396;-78
2021/12/19 09:41:42;;;;;;;32.55;12.95;;;;;;;;;;5053244;28;20025;-78
2021/12/19 09:44:09;;;;;;;30.45;13.23;;;;;;;;;;5036901;28;20448;-78
2021/12/19 09:46:36;;;;;;;29.25;12.18;;;;;;;;;;5053489;28;20024;-77
2021/12/19 09:49:06;;;;;;;26.45;12.55;;;;;;;;;;5036200;28;20025;-78
2021/12/19 09:51:31;;;;;;;30.52;12.48;;;;;;;;;;5036639;28;20040;-78
2021/12/19 09:53:57;;;;;;;30.80;12.70;;;;;;;;;;5052503;28;20418;-79
2021/12/19 09:56:22;;;;;;;22.40;11.73;;;;;;;;;;5054041;28;20029;-78
2021/12/19 09:58:49;;;;;;;39.88;19.67;;;;;;;;;;5054046;28;20035;-79
2021/12/19 10:01:14;;;;;;;28.60;13.38;;;;;;;;;;5053702;28;20086;-78
2021/12/19 10:03:40;;;;;;;26.48;13.02;;;;;;;;;;5053387;28;20028;-78
2021/12/19 10:06:12;;;;;;;26.95;15.55;;;;;;;;;;5053368;28;20036;-79
2021/12/19 10:08:37;;;;;;;23.88;11.65;;;;;;;;;;5054953;28;20170;-78
2021/12/19 10:11:10;;;;;;;21.48;10.85;;;;;;;;;;5055994;28;20112;-79
2021/12/19 10:13:36;;;;;;;31.10;14.25;;;;;;;;;;5055707;28;20444;-78
2021/12/19 10:16:04;;;;;;;27.25;12.05;;;;;;;;;;5058712;28;20130;-78
2021/12/19 10:18:29;;;;;;;20.80;11.50;;;;;;;;;;5042524;28;20375;-78
2021/12/19 10:20:59;;;;;;;24.75;12.13;;;;;;;;;;5055563;28;20024;-78
2021/12/19 10:23:29;;;;;;;29.60;14.57;;;;;;;;;;5056694;28;20044;-78
2021/12/19 10:26:06;;;;;;;26.40;12.80;;;;;;;;;;5056508;28;20025;-78
2021/12/19 10:28:31;;;;;;;32.05;14.73;;;;;;;;;;5056569;28;20383;-78
2021/12/19 10:30:58;;;;;;;25.33;12.43;;;;;;;;;;5056670;28;20029;-78
2021/12/19 10:33:26;;;;;;;27.67;13.85;;;;;;;;;;5038899;28;20056;-78
2021/12/19 10:35:58;;;;;;;27.30;11.90;;;;;;;;;;5056619;28;20423;-78
2021/12/19 10:38:33;;;;;;;36.72;15.30;;;;;;;;;;5056342;28;20079;-78
2021/12/19 10:41:07;;;;;;;32.38;14.75;;;;;;;;;;5054982;28;20059;-78
2021/12/19 10:43:33;;;;;;;32.15;14.20;;;;;;;;;;5056319;28;20029;-78
2021/12/19 10:46:04;;;;;;;28.52;13.20;;;;;;;;;;5055031;28;20043;-78
2021/12/19 10:48:37;;;;;;;35.47;15.32;;;;;;;;;;5055148;28;20029;-78
2021/12/19 10:51:19;;;;;;;38.65;17.45;;;;;;;;;;5056269;28;20039;-79
2021/12/19 10:53:45;;;;;;;29.30;13.27;;;;;;;;;;5055835;28;20079;-78
2021/12/19 10:56:20;;;;;;;26.38;12.10;;;;;;;;;;5066221;28;20028;-78
2021/12/19 10:58:56;;;;;;;31.63;13.95;;;;;;;;;;5056083;28;20071;-78
2021/12/19 11:01:30;;;;;;;30.10;14.25;;;;;;;;;;5054755;28;20025;-77
2021/12/19 11:04:02;;;;;;;26.63;13.50;;;;;;;;;;5055985;28;20445;-78
2021/12/19 11:06:41;;;;;;;26.58;12.05;;;;;;;;;;5055919;28;20048;-77
2021/12/19 11:09:08;;;;;;;30.00;13.93;;;;;;;;;;5054816;28;20029;-77
2021/12/19 11:11:42;;;;;;;27.60;12.18;;;;;;;;;;5055946;28;20021;-77
2021/12/19 11:14:10;;;;;;;23.58;12.15;;;;;;;;;;5055004;28;20064;-78
2021/12/19 11:16:36;;;;;;;22.15;11.52;;;;;;;;;;5060975;28;20025;-79
2021/12/19 11:19:01;;;;;;;25.90;11.82;;;;;;;;;;5058204;28;20036;-77
2021/12/19 11:21:32;;;;;;;26.00;12.00;;;;;;;;;;5055939;28;20044;-77
2021/12/19 11:23:58;;;;;;;30.42;13.02;;;;;;;;;;5054259;28;20055;-78
2021/12/19 11:26:23;;;;;;;32.58;13.90;;;;;;;;;;5054405;28;20448;-78
2021/12/19 11:28:49;;;;;;;28.25;15.05;;;;;;;;;;5037713;28;20029;-77
2021/12/19 11:31:14;;;;;;;31.90;14.77;;;;;;;;;;5037753;28;20406;-77
2021/12/19 11:34:16;;;;;;;30.15;14.80;;;;;;;;;;5021158;28;20095;-78
2021/12/19 11:36:44;;;;;;;27.23;13.57;;;;;;;;;;5064359;28;20039;-78
2021/12/19 11:39:10;;;;;;;30.73;13.82;;;;;;;;;;5038185;28;20103;-78
2021/12/19 11:41:35;;;;;;;29.45;14.25;;;;;;;;;;5037584;28;20444;-77
2021/12/19 11:44:04;;;;;;;26.55;13.23;;;;;;;;;;5037544;28;20086;-77
2021/12/19 11:46:49;;;;;;;34.88;15.38;;;;;;;;;;5054164;28;20071;-77
2021/12/19 11:49:26;;;;;;;29.55;16.00;;;;;;;;;;5055184;28;20032;-77
2021/12/19 11:52:30;;;;;;;28.85;14.48;;;;;;;;;;5054049;28;20413;-78
2021/12/19 11:55:14;;;;;;;29.60;12.05;;;;;;;;;;5055770;28;20413;-77
2021/12/19 11:57:43;;;;;;;27.00;13.15;;;;;;;;;;5057009;28;20039;-77
2021/12/19 12:00:29;;;;;;;27.47;13.00;;;;;;;;;;5055025;28;20036;-78
2021/12/19 12:03:12;;;;;;;25.20;12.60;;;;;;;;;;5053666;28;20085;-77
2021/12/19 12:05:38;;;;;;;30.08;14.15;;;;;;;;;;5054853;28;20025;-78
2021/12/19 12:08:04;;;;;;;29.20;15.00;;;;;;;;;;5054524;28;20031;-77
2021/12/19 12:10:50;;;;;;;31.23;15.77;;;;;;;;;;5055087;28;20039;-78
2021/12/19 12:13:24;;;;;;;26.27;12.00;;;;;;;;;;5054668;28;20032;-77
2021/12/19 12:15:53;;;;;;;25.25;12.70;;;;;;;;;;5061199;28;20360;-77
2021/12/19 12:18:35;;;;;;;22.77;11.82;;;;;;;;;;5055689;28;20123;-77
2021/12/19 12:24:04;;;;;;;37.05;13.80;;;;;;;;;;5053257;28;20063;-78
2021/12/19 12:26:54;;;;;;;30.20;14.30;;;;;;;;;;5054520;28;20056;-77
2021/12/19 12:29:20;;;;;;;33.45;15.05;;;;;;;;;;5053581;28;20040;-78
2021/12/19 12:31:46;;;;;;;31.58;15.10;;;;;;;;;;5021740;28;20128;-78
2021/12/19 12:34:15;;;;;;;32.90;14.50;;;;;;;;;;5058106;28;20067;-78
2021/12/19 12:36:40;;;;;;;29.88;14.30;;;;;;;;;;5054027;28;20052;-77
2021/12/19 12:39:10;;;;;;;36.40;15.07;;;;;;;;;;5053338;28;20053;-78
2021/12/19 12:44:06;;;;;;;43.58;18.98;;;;;;;;;;5054255;28;20104;-77
2021/12/19 12:46:31;;;;;;;50.30;20.83;;;;;;;;;;5053085;28;20028;-77
2021/12/19 12:49:04;;;;;;;42.53;18.85;;;;;;;;;;5054193;28;20017;-78
2021/12/19 12:51:43;;;;;;;53.42;21.55;;;;;;;;;;5055506;28;20036;-77
2021/12/19 12:54:10;;;;;;;46.80;20.17;;;;;;;;;;5045251;28;20100;-78
2021/12/19 12:56:42;;;;;;;46.22;20.98;;;;;;;;;;5052974;28;20090;-78
2021/12/19 12:59:08;;;;;;;51.90;21.55;;;;;;;;;;5052899;28;20032;-77
2021/12/19 13:01:37;;;;;;;52.85;23.50;;;;;;;;;;5053946;28;20021;-77
2021/12/19 13:04:23;;;;;;;58.15;26.10;;;;;;;;;;5053058;28;20024;-78
2021/12/19 13:06:55;;;;;;;49.10;21.00;;;;;;;;;;5053736;28;20029;-77
2021/12/19 13:09:50;;;;;;;38.13;16.90;;;;;;;;;;5069346;28;20058;-77
2021/12/19 13:12:30;;;;;;;34.63;15.88;;;;;;;;;;5056663;28;20105;-77
2021/12/19 13:14:57;;;;;;;35.53;16.20;;;;;;;;;;5054642;28;20071;-77
2021/12/19 13:17:23;;;;;;;39.60;16.67;;;;;;;;;;5054071;28;20040;-77
2021/12/19 13:19:58;;;;;;;35.88;15.32;;;;;;;;;;5053573;28;20021;-77
2021/12/19 13:22:27;;;;;;;48.17;19.95;;;;;;;;;;5053758;28;20178;-78
2021/12/19 13:24:56;;;;;;;62.85;23.63;;;;;;;;;;5053178;28;20395;-79
2021/12/19 13:27:27;;;;;;;41.33;17.20;;;;;;;;;;5052729;28;20025;-77
2021/12/19 13:30:27;;;;;;;38.13;16.50;;;;;;;;;;5053775;28;20032;-77
2021/12/19 13:32:59;;;;;;;42.55;17.13;;;;;;;;;;5056354;28;20044;-77
2021/12/19 13:35:38;;;;;;;45.45;19.52;;;;;;;;;;5035810;28;20037;-77
2021/12/19 13:38:06;;;;;;;54.20;19.20;;;;;;;;;;5053600;28;20136;-77
2021/12/19 13:40:37;;;;;;;55.72;20.70;;;;;;;;;;5053465;28;20115;-78
2021/12/19 13:43:10;;;;;;;36.92;14.85;;;;;;;;;;5038391;28;20486;-77
2021/12/19 13:45:56;;;;;;;40.80;15.73;;;;;;;;;;5043327;28;20463;-77
2021/12/19 13:48:28;;;;;;;41.08;15.45;;;;;;;;;;5043490;28;20029;-78
2021/12/19 13:50:54;;;;;;;30.50;12.88;;;;;;;;;;5061942;28;20033;-77
2021/12/19 13:53:20;;;;;;;32.17;12.93;;;;;;;;;;5065048;28;20029;-77
2021/12/19 13:55:54;;;;;;;32.67;12.90;;;;;;;;;;5043946;28;20047;-76
2021/12/19 13:58:20;;;;;;;38.17;14.15;;;;;;;;;;5043051;28;20032;-77
2021/12/19 14:00:49;;;;;;;39.08;15.90;;;;;;;;;;5063915;28;20418;-78
2021/12/19 14:03:15;;;;;;;32.15;13.48;;;;;;;;;;5058989;28;20036;-78
2021/12/19 14:05:46;;;;;;;37.80;17.25;;;;;;;;;;5056571;28;20029;-76
2021/12/19 14:08:22;;;;;;;33.88;13.75;;;;;;;;;;5039330;28;20029;-78
2021/12/19 14:11:09;;;;;;;33.78;14.65;;;;;;;;;;5043624;28;20029;-77
2021/12/19 14:13:36;;;;;;;34.40;13.20;;;;;;;;;;5040730;28;20032;-77
2021/12/19 14:16:03;;;;;;;27.45;12.43;;;;;;;;;;5039439;28;20368;-77
2021/12/19 14:18:41;;;;;;;29.42;12.27;;;;;;;;;;5057095;28;20021;-76
2021/12/19 14:21:34;;;;;;;38.65;15.35;;;;;;;;;;5056717;28;20572;-77
2021/12/19 14:24:28;;;;;;;41.42;16.48;;;;;;;;;;5056774;28;20064;-76
2021/12/19 14:27:25;;;;;;;42.35;19.05;;;;;;;;;;5056777;28;20115;-79
2021/12/19 14:30:12;;;;;;;43.67;18.30;;;;;;;;;;5059178;28;20033;-76
2021/12/19 14:32:51;;;;;;;48.88;18.95;;;;;;;;;;5056508;28;20032;-78
2021/12/19 14:35:30;;;;;;;42.33;19.40;;;;;;;;;;5055281;28;20028;-76
2021/12/19 14:37:58;;;;;;;50.53;21.38;;;;;;;;;;5056419;28;20036;-79
2021/12/19 14:40:34;;;;;;;56.42;21.17;;;;;;;;;;5056321;28;20128;-77
2021/12/19 14:43:02;;;;;;;52.92;20.10;;;;;;;;;;5055107;28;20029;-77
2021/12/19 14:45:47;;;;;;;53.47;21.38;;;;;;;;;;5055465;28;20029;-77
2021/12/19 14:48:17;;;;;;;59.17;21.27;;;;;;;;;;5056541;28;20033;-77
2021/12/19 14:50:59;;;;;;;56.67;20.73;;;;;;;;;;5055883;28;20456;-78
2021/12/19 14:53:37;;;;;;;61.60;23.08;;;;;;;;;;5055761;28;20087;-78
2021/12/19 14:56:09;;;;;;;64.35;24.73;;;;;;;;;;5038422;28;20383;-78
2021/12/19 14:58:46;;;;;;;55.35;23.00;;;;;;;;;;5055235;28;20024;-77
2021/12/19 15:01:12;;;;;;;49.45;20.35;;;;;;;;;;5054622;28;20025;-78
2021/12/19 15:03:40;;;;;;;47.70;19.67;;;;;;;;;;5056128;28;20028;-78
2021/12/19 15:06:11;;;;;;;44.53;20.27;;;;;;;;;;5038249;28;20021;-77
2021/12/19 15:08:41;;;;;;;43.13;19.73;;;;;;;;;;5062670;28;20013;-77
2021/12/19 15:11:06;;;;;;;50.95;20.27;;;;;;;;;;5055044;28;20033;-77
2021/12/19 15:13:32;;;;;;;44.78;19.08;;;;;;;;;;5037873;28;20078;-78
2021/12/19 15:15:57;;;;;;;41.88;17.27;;;;;;;;;;5055873;28;20028;-79
2021/12/19 15:18:23;;;;;;;45.60;19.83;;;;;;;;;;5055876;28;20033;-77
2021/12/19 15:20:49;;;;;;;45.78;18.90;;;;;;;;;;5055709;28;20074;-75
2021/12/19 15:23:16;;;;;;;51.13;20.40;;;;;;;;;;5055740;28;20024;-76
2021/12/19 15:25:45;;;;;;;56.95;22.95;;;;;;;;;;5054420;28;20086;-77
2021/12/19 15:28:11;;;;;;;52.00;21.98;;;;;;;;;;5059125;28;20044;-77
2021/12/19 15:30:37;;;;;;;57.85;23.75;;;;;;;;;;5055910;28;20380;-77
2021/12/19 15:33:02;;;;;;;66.68;26.35;;;;;;;;;;5055446;28;20033;-78
2021/12/19 15:35:28;;;;;;;54.80;23.70;;;;;;;;;;5055494;28;20079;-77
2021/12/19 15:37:53;;;;;;;53.38;21.58;;;;;;;;;;5055276;28;20037;-78
2021/12/19 15:40:19;;;;;;;52.35;20.88;;;;;;;;;;5055185;28;20107;-77
2021/12/19 15:42:45;;;;;;;51.00;21.73;;;;;;;;;;5055292;28;20099;-76
2021/12/19 15:45:11;;;;;;;52.45;22.25;;;;;;;;;;5054975;28;20459;-77